Time;durP1;ratioP1;P1;durP2;ratioP2;P2;SDS_P1;SDS_P2;PMS_P1;PMS_P2;Temp;Humidity;BMP_temperature;BMP_pressure;BME280_temperature;BME280_humidity;BME280_pressure;Samples;Min_cycle;Max_cycle;Signal;HPM_P1;HPM_P2
2021/06/11 00:00:32;;;;;;;1.60;1.60;;;;;;;17.65;72.53;99775.23;1695878;83;21029;-77
2021/06/11 00:02:58;;;;;;;;;;;;;;;17.59;72.71;99773.52;1696786;83;20998;-76
2021/06/11 00:05:25;;;;;;;1.35;1.25;;;;;;;17.56;72.95;99772.68;1684122;83;20228;-77
2021/06/11 00:07:51;;;;;;;1.52;1.45;;;;;;;17.55;72.88;99777.77;1688099;83;21121;-76
2021/06/11 00:10:18;;;;;;;1.65;1.55;;;;;;;17.58;72.83;99779.17;1703504;83;21512;-76
2021/06/11 00:12:44;;;;;;;1.65;1.55;;;;;;;17.59;72.85;99782.95;1698515;82;21029;-76
2021/06/11 00:15:12;;;;;;;2.00;1.87;;;;;;;17.58;72.86;99784.56;1691479;83;21105;-77
2021/06/11 00:17:38;;;;;;;3.50;1.87;;;;;;;17.50;73.05;99784.45;1686821;83;21479;-77
2021/06/11 00:20:06;;;;;;;;;;;;;;;17.51;73.05;99783.38;1689205;83;21022;-76
2021/06/11 00:22:33;;;;;;;1.80;1.70;;;;;;;17.57;72.86;99784.27;1694136;83;20142;-76
2021/06/11 00:25:00;;;;;;;2.37;2.22;;;;;;;17.54;72.94;99790.98;1678808;83;21022;-76
2021/06/11 00:27:26;;;;;;;;;;;;;;;17.57;72.90;99795.85;1690017;83;21057;-76
2021/06/11 00:29:53;;;;;;;1.87;1.77;;;;;;;17.57;72.99;99792.35;1671661;83;20177;-77
2021/06/11 00:32:19;;;;;;;;;;;;;;;17.45;73.35;99793.80;1677166;83;20994;-77
2021/06/11 00:34:45;;;;;;;1.65;1.55;;;;;;;17.48;73.29;99793.32;1670317;85;20192;-77
2021/06/11 00:37:13;;;;;;;1.10;1.00;;;;;;;17.48;73.29;99793.32;1677423;83;21144;-77
2021/06/11 00:39:39;;;;;;;1.40;1.40;;;;;;;17.49;73.30;99789.01;1696565;83;21655;-77
2021/06/11 00:42:06;;;;;;;;;;;;;;;17.50;73.10;99787.16;1697424;83;21032;-77
2021/06/11 00:44:34;;;;;;;1.50;1.35;;;;;;;17.35;73.52;99797.67;1699092;82;20145;-78
2021/06/11 00:47:01;;;;;;;1.60;1.50;;;;;;;17.37;73.55;99788.84;1693053;82;21165;-77
2021/06/11 00:49:27;;;;;;;1.27;1.27;;;;;;;17.37;73.55;99788.84;1695366;82;21022;-78
2021/06/11 00:51:53;;;;;;;;;;;;;;;17.41;73.49;99797.52;1698938;82;20990;-77
2021/06/11 00:54:21;;;;;;;2.22;2.08;;;;;;;17.40;73.50;99794.53;1704441;82;20105;-77
2021/06/11 00:56:48;;;;;;;1.72;1.62;;;;;;;17.35;73.61;99808.45;1704353;82;21090;-79
2021/06/11 00:59:14;;;;;;;1.55;1.45;;;;;;;17.35;73.92;99806.59;1660145;84;21156;-79
2021/06/11 01:01:42;;;;;;;1.67;1.57;;;;;;;17.36;73.68;99802.02;1708604;82;21687;-77
2021/06/11 01:04:10;;;;;;;1.55;1.50;;;;;;;17.35;73.69;99800.37;1700310;83;21667;-76
2021/06/11 01:06:41;;;;;;;2.37;2.07;;;;;;;17.39;73.71;99796.95;1709150;83;21079;-77
2021/06/11 01:09:11;;;;;;;1.98;1.90;;;;;;;17.40;73.46;99791.03;1707360;83;21625;-77
2021/06/11 01:11:42;;;;;;;1.47;1.37;;;;;;;17.36;73.59;99791.24;1690183;82;21023;-77
2021/06/11 01:14:11;;;;;;;1.27;1.27;;;;;;;17.37;73.54;99786.96;1707611;83;21038;-77
2021/06/11 01:16:39;;;;;;;1.77;1.67;;;;;;;17.41;73.52;99795.37;1703278;83;21046;-74
2021/06/11 01:19:09;;;;;;;3.85;1.82;;;;;;;17.40;73.55;99799.11;1703022;84;21078;-78
2021/06/11 01:21:47;;;;;;;2.02;1.92;;;;;;;17.38;73.36;99796.66;1705754;83;21038;-78
2021/06/11 01:24:21;;;;;;;3.22;2.10;;;;;;;17.39;73.51;99794.80;1701318;83;21126;-77
2021/06/11 01:26:53;;;;;;;3.50;2.02;;;;;;;17.39;73.50;99794.80;1710589;83;21011;-77
2021/06/11 01:29:24;;;;;;;5.28;2.47;;;;;;;17.34;73.78;99796.06;1700576;83;20967;-78
2021/06/11 01:31:54;;;;;;;2.50;2.37;;;;;;;17.29;73.96;99801.66;1708247;83;21003;-77
2021/06/11 01:34:32;;;;;;;1.87;1.77;;;;;;;17.30;74.05;99807.31;1713146;83;21083;-77
2021/06/11 01:37:19;;;;;;;2.42;2.33;;;;;;;17.30;74.11;99814.59;1698127;84;21101;-78
2021/06/11 01:39:51;;;;;;;2.52;2.33;;;;;;;17.27;74.13;99811.87;1694893;84;21066;-77
2021/06/11 01:42:17;;;;;;;2.60;2.20;;;;;;;17.25;74.43;99809.11;1698298;84;21069;-75
2021/06/11 01:44:45;;;;;;;3.00;2.08;;;;;;;17.26;74.42;99804.02;1706957;81;21010;-79
2021/06/11 01:47:14;;;;;;;1.77;1.77;;;;;;;17.28;74.39;99809.44;1670932;83;21033;-79
2021/06/11 01:49:45;;;;;;;1.75;1.57;;;;;;;17.31;74.38;99802.23;1681071;85;21075;-76
2021/06/11 01:52:14;;;;;;;1.92;1.80;;;;;;;17.36;74.28;99810.09;1669757;85;21025;-77
2021/06/11 01:54:43;;;;;;;2.00;1.98;;;;;;;17.34;74.21;99810.34;1687595;84;20983;-77
2021/06/11 01:57:11;;;;;;;2.22;2.12;;;;;;;17.31;74.24;99807.61;1715226;82;21097;-78
2021/06/11 01:59:39;;;;;;;2.00;1.60;;;;;;;17.36;74.27;99807.41;1724943;82;21040;-76
2021/06/11 02:02:07;;;;;;;2.12;1.98;;;;;;;17.38;74.14;99802.58;1689789;83;21019;-77
2021/06/11 02:04:34;;;;;;;2.52;2.33;;;;;;;17.40;74.23;99805.30;1685733;83;21461;-77
2021/06/11 02:07:07;;;;;;;2.15;2.12;;;;;;;17.41;74.16;99804.25;1683588;83;21016;-78
2021/06/11 02:09:32;;;;;;;2.83;2.62;;;;;;;17.41;74.22;99812.34;1710467;82;21011;-78
2021/06/11 02:12:00;;;;;;;2.33;2.12;;;;;;;17.42;74.29;99807.25;1734898;81;21253;-78
2021/06/11 02:14:28;;;;;;;1.60;1.50;;;;;;;17.43;74.20;99806.71;1752304;80;21058;-79
2021/06/11 02:16:58;;;;;;;2.22;2.12;;;;;;;17.44;74.12;99815.90;1750303;81;21492;-78
2021/06/11 02:19:25;;;;;;;3.35;2.22;;;;;;;17.46;74.47;99819.16;1749884;81;21018;-78
2021/06/11 02:21:52;;;;;;;3.17;2.83;;;;;;;17.49;74.50;99818.65;1751209;80;21025;-77
2021/06/11 02:24:20;;;;;;;2.50;2.30;;;;;;;17.54;74.56;99810.34;1716416;80;21532;-77
2021/06/11 02:26:48;;;;;;;5.05;2.90;;;;;;;17.55;74.47;99818.19;1718242;82;21026;-77
2021/06/11 02:29:15;;;;;;;2.75;2.50;;;;;;;17.56;74.53;99821.19;1711377;82;21021;-77
2021/06/11 02:31:41;;;;;;;2.30;2.20;;;;;;;17.61;74.55;99817.22;1710398;82;21111;-77
2021/06/11 02:34:07;;;;;;;2.52;2.40;;;;;;;17.67;74.68;99814.88;1711657;82;20990;-86
2021/06/11 02:36:35;;;;;;;3.80;3.58;;;;;;;17.71;74.68;99813.86;1713260;82;21086;-86
2021/06/11 02:39:02;;;;;;;3.30;3.12;;;;;;;17.74;74.82;99820.61;1684514;83;21011;-86
2021/06/11 02:41:39;;;;;;;3.17;2.95;;;;;;;17.70;75.02;99810.32;1715834;82;21513;-87
2021/06/11 02:44:08;;;;;;;3.20;3.10;;;;;;;17.77;75.41;99814.74;1716174;82;20995;-88
2021/06/11 02:46:51;;;;;;;3.80;3.52;;;;;;;17.83;75.51;99823.98;1705312;83;21058;-87
2021/06/11 02:49:26;;;;;;;3.65;3.52;;;;;;;17.86;75.62;99818.67;1696283;83;21485;-87
2021/06/11 02:51:59;;;;;;;3.72;3.47;;;;;;;17.89;75.97;99823.04;1695698;83;21011;-85
2021/06/11 02:54:35;;;;;;;3.70;3.50;;;;;;;17.93;75.92;99819.83;1708428;83;21027;-86
2021/06/11 02:57:26;;;;;;;3.98;3.67;;;;;;;17.96;75.94;99822.84;1710098;83;21047;-85
2021/06/11 02:59:58;;;;;;;4.85;4.55;;;;;;;17.97;75.94;99823.14;1705420;83;21127;-85
2021/06/11 03:02:29;;;;;;;4.78;4.35;;;;;;;17.89;75.97;99824.38;1746760;81;20978;-85
2021/06/11 03:04:57;;;;;;;4.53;4.30;;;;;;;17.87;76.08;99828.38;1743097;81;21022;-85
2021/06/11 03:07:30;;;;;;;7.03;6.53;;;;;;;17.88;75.83;99828.67;1736282;81;20983;-80
2021/06/11 03:10:05;;;;;;;5.50;5.28;;;;;;;17.81;75.88;99825.30;1740039;81;21006;-87
2021/06/11 03:12:33;;;;;;;6.97;4.47;;;;;;;17.71;76.27;99825.44;1746940;81;21458;-87
2021/06/11 03:14:59;;;;;;;3.95;3.70;;;;;;;17.67;76.44;99824.31;1752957;81;21051;-88
2021/06/11 03:17:32;;;;;;;4.25;3.83;;;;;;;17.70;76.83;99831.88;1726833;83;21118;-87
2021/06/11 03:20:04;;;;;;;4.53;4.22;;;;;;;17.74;76.57;99836.79;1707070;83;21026;-85
2021/06/11 03:22:38;;;;;;;3.70;3.45;;;;;;;17.76;76.48;99827.38;1750794;81;21018;-85
2021/06/11 03:25:16;;;;;;;4.00;3.80;;;;;;;17.81;76.22;99839.59;1747714;81;20986;-85
2021/06/11 03:27:48;;;;;;;3.77;3.58;;;;;;;17.77;76.27;99829.56;1753220;81;21102;-86
2021/06/11 03:30:17;;;;;;;3.30;3.20;;;;;;;17.76;75.96;99836.01;1743667;81;21007;-86
2021/06/11 03:32:54;;;;;;;3.30;3.10;;;;;;;17.74;75.89;99835.44;1747934;81;21022;-89
2021/06/11 03:35:27;;;;;;;3.35;2.77;;;;;;;17.70;75.47;99848.05;1742573;81;21063;-86
2021/06/11 03:37:55;;;;;;;4.60;2.80;;;;;;;17.65;75.10;99842.61;1751168;81;21046;-85
2021/06/11 03:40:26;;;;;;;3.02;2.83;;;;;;;17.64;75.04;99848.24;1749062;81;21014;-87
2021/06/11 03:42:54;;;;;;;2.55;2.45;;;;;;;17.65;74.81;99846.66;1745201;80;21003;-86
2021/06/11 03:45:21;;;;;;;3.52;2.70;;;;;;;17.65;74.47;99849.86;1747394;77;21045;-87
2021/06/11 03:47:49;;;;;;;2.20;2.10;;;;;;;17.54;74.50;99843.52;1744374;81;20998;-86
2021/06/11 03:50:21;;;;;;;3.02;2.83;;;;;;;17.48;74.59;99848.55;1749259;81;21042;-85
2021/06/11 03:52:49;;;;;;;2.67;2.40;;;;;;;17.46;74.79;99845.27;1750963;81;20982;-85
2021/06/11 03:55:29;;;;;;;4.20;3.00;;;;;;;17.46;74.88;99850.65;1752072;81;21033;-86
2021/06/11 03:58:04;;;;;;;3.10;2.92;;;;;;;17.45;74.84;99849.03;1728459;81;21096;-86
2021/06/11 04:00:32;;;;;;;2.67;2.58;;;;;;;17.45;74.99;99850.38;1746457;81;21006;-87
2021/06/11 04:03:00;;;;;;;4.85;2.92;;;;;;;17.44;75.07;99851.43;1749644;81;21030;-87
2021/06/11 04:05:27;;;;;;;2.47;2.27;;;;;;;17.44;75.30;99852.77;1740355;80;21001;-87
2021/06/11 04:07:57;;;;;;;3.12;2.92;;;;;;;17.50;75.13;99861.25;1727350;81;21500;-86
2021/06/11 04:10:41;;;;;;;2.65;2.52;;;;;;;17.54;74.60;99861.55;1742075;81;21011;-86
2021/06/11 04:13:28;;;;;;;3.22;2.92;;;;;;;17.55;74.68;99855.91;1722082;82;21540;-86
2021/06/11 04:15:59;;;;;;;3.65;3.30;;;;;;;17.54;74.56;99859.69;1719831;82;21042;-86
2021/06/11 04:18:29;;;;;;;4.83;3.20;;;;;;;17.50;74.81;99858.55;1690412;84;21019;-85
2021/06/11 04:21:01;;;;;;;4.15;3.72;;;;;;;17.49;74.94;99865.80;1720858;82;20986;-85
2021/06/11 04:23:36;;;;;;;3.20;2.95;;;;;;;17.53;74.84;99863.43;1735824;81;21104;-85
2021/06/11 04:26:05;;;;;;;3.70;3.50;;;;;;;17.57;74.82;99867.27;1744533;81;20998;-86
2021/06/11 04:28:34;;;;;;;2.90;2.65;;;;;;;17.57;74.98;99862.41;1741850;81;21066;-85
2021/06/11 04:31:02;;;;;;;3.30;3.20;;;;;;;17.53;75.56;99868.02;1741938;81;21073;-86
2021/06/11 04:33:31;;;;;;;4.12;3.83;;;;;;;17.51;75.46;99865.02;1747937;81;21074;-86
2021/06/11 04:35:59;;;;;;;3.60;3.40;;;;;;;17.48;75.54;99870.11;1707590;82;21133;-85
2021/06/11 04:38:26;;;;;;;3.92;3.72;;;;;;;17.46;75.89;99870.34;1718490;82;20991;-87
2021/06/11 04:40:52;;;;;;;4.15;3.85;;;;;;;17.44;76.09;99867.09;1715784;82;21047;-85
2021/06/11 04:43:24;;;;;;;3.47;3.30;;;;;;;17.46;76.19;99870.34;1716730;82;21030;-86
2021/06/11 04:45:52;;;;;;;4.05;3.75;;;;;;;17.54;76.06;99872.33;1687388;82;21087;-86
2021/06/11 04:48:18;;;;;;;3.67;3.50;;;;;;;17.59;75.92;99869.17;1671312;84;21010;-86
2021/06/11 04:50:45;;;;;;;4.55;4.22;;;;;;;17.69;75.81;99873.39;1671386;84;21107;-86
2021/06/11 04:53:11;;;;;;;4.45;3.98;;;;;;;17.80;75.69;99865.44;1665517;84;21156;-87
2021/06/11 04:55:38;;;;;;;4.97;4.37;;;;;;;17.88;75.53;99867.77;1673380;84;21014;-86
2021/06/11 04:58:04;;;;;;;4.83;4.42;;;;;;;17.88;75.74;99870.46;1729247;81;21061;-86
2021/06/11 05:00:30;;;;;;;3.83;3.67;;;;;;;17.85;75.30;99869.59;1730949;81;20982;-87
2021/06/11 05:02:57;;;;;;;4.00;3.70;;;;;;;17.85;75.98;99873.64;1733812;82;21006;-86
2021/06/11 05:08:33;;;;;;;4.60;4.20;;;;;;;17.88;76.16;99865.88;1784702;78;22826;-86
2021/06/11 05:11:01;;;;;;;5.20;4.42;;;;;;;17.89;76.41;99872.92;1746008;80;21088;-86
2021/06/11 05:13:29;;;;;;;4.00;3.65;;;;;;;17.91;76.10;99872.64;1754808;80;21065;-86
2021/06/11 05:15:56;;;;;;;3.90;3.70;;;;;;;17.97;76.53;99867.62;1757631;80;21017;-85
2021/06/11 05:18:26;;;;;;;4.17;3.92;;;;;;;18.07;76.37;99866.95;1748939;80;20978;-87
2021/06/11 05:20:53;;;;;;;3.80;3.58;;;;;;;18.18;75.43;99862.51;1742500;80;21239;-85
2021/06/11 05:23:21;;;;;;;3.20;2.92;;;;;;;18.22;74.98;99862.28;1708559;81;21021;-86
2021/06/11 05:25:49;;;;;;;4.05;3.80;;;;;;;18.25;74.61;99863.95;1687950;83;21009;-88
2021/06/11 05:28:18;;;;;;;3.30;3.00;;;;;;;18.28;74.56;99866.67;1681774;83;21096;-86
2021/06/11 05:30:46;;;;;;;3.15;3.05;;;;;;;18.35;74.55;99868.66;1687806;83;21001;-86
2021/06/11 05:33:13;;;;;;;3.67;3.50;;;;;;;18.44;74.61;99873.89;1691579;83;21551;-86
2021/06/11 05:35:40;;;;;;;3.35;3.15;;;;;;;18.51;73.54;99870.18;1714704;82;21155;-85
2021/06/11 05:38:07;;;;;;;4.42;3.12;;;;;;;18.43;72.83;99869.55;1721065;82;21471;-85
2021/06/11 05:40:35;;;;;;;3.27;3.12;;;;;;;18.43;73.12;99875.48;1720657;82;21130;-86
2021/06/11 05:43:03;;;;;;;3.20;2.50;;;;;;;18.46;73.46;99876.34;1716047;82;21028;-89
2021/06/11 05:45:30;;;;;;;2.70;2.50;;;;;;;18.52;72.98;99875.33;1709721;82;21028;-88
2021/06/11 05:48:02;;;;;;;3.35;2.80;;;;;;;18.59;73.38;99876.47;1710610;82;21049;-89
2021/06/11 05:50:29;;;;;;;2.65;2.55;;;;;;;18.63;73.29;99873.58;1710012;82;21526;-88
2021/06/11 05:52:56;;;;;;;7.45;2.70;;;;;;;18.69;72.94;99880.66;1723887;81;20969;-88
2021/06/11 05:55:45;;;;;;;2.55;2.45;;;;;;;18.73;72.59;99880.97;1707974;82;21755;-87
2021/06/11 05:58:12;;;;;;;3.85;2.80;;;;;;;18.78;72.20;99881.00;1590800;89;21139;-88
2021/06/11 06:00:39;;;;;;;2.85;2.62;;;;;;;18.81;71.76;99881.34;1583248;88;21124;-88
2021/06/11 06:03:09;;;;;;;3.02;2.75;;;;;;;18.80;71.29;99879.73;1559402;90;21160;-87
2021/06/11 06:05:35;;;;;;;5.22;2.22;;;;;;;18.82;71.23;99887.03;1560549;90;21240;-87
2021/06/11 06:08:04;;;;;;;3.35;2.15;;;;;;;18.87;71.05;99887.61;1559965;90;21069;-87
2021/06/11 06:10:31;;;;;;;3.17;2.72;;;;;;;18.91;71.17;99888.76;1560353;90;21088;-87
2021/06/11 06:12:57;;;;;;;2.42;2.22;;;;;;;19.00;71.07;99885.05;1588075;88;21133;-87
2021/06/11 06:15:24;;;;;;;2.20;2.08;;;;;;;19.05;70.81;99887.80;1594362;89;21502;-85
2021/06/11 06:17:49;;;;;;;;;;;;;;;19.15;70.48;99889.23;1590230;89;21156;-85
2021/06/11 06:20:16;;;;;;;2.80;2.02;;;;;;;19.27;69.77;99889.09;1586190;89;20170;-86
2021/06/11 06:22:43;;;;;;;2.20;2.10;;;;;;;19.33;69.47;99892.66;1576056;89;21083;-85
2021/06/11 06:25:12;;;;;;;2.98;2.17;;;;;;;19.29;69.85;99891.00;1557738;91;21633;-86
2021/06/11 06:27:41;;;;;;;1.98;1.82;;;;;;;19.35;69.49;99886.45;1554936;91;21071;-87
2021/06/11 06:30:10;;;;;;;2.25;1.80;;;;;;;19.42;68.76;99885.16;1560131;91;21019;-86
2021/06/11 06:32:37;;;;;;;6.10;2.30;;;;;;;19.53;68.31;99891.98;1563692;91;21070;-86
2021/06/11 06:35:06;;;;;;;3.35;2.52;;;;;;;19.60;68.16;99893.94;1596313;87;21368;-85
2021/06/11 06:37:32;;;;;;;2.85;2.72;;;;;;;19.67;67.24;99898.59;1602345;88;21573;-86
2021/06/11 06:39:59;;;;;;;2.62;2.50;;;;;;;19.64;67.77;99893.16;1608335;88;21244;-86
2021/06/11 06:42:25;;;;;;;2.27;2.17;;;;;;;19.61;67.26;99899.09;1607255;88;21075;-85
2021/06/11 06:44:51;;;;;;;2.47;2.37;;;;;;;19.60;67.45;99899.35;1619720;86;21110;-87
2021/06/11 06:47:19;;;;;;;3.55;2.22;;;;;;;19.64;66.85;99897.20;1604341;88;22141;-86
2021/06/11 06:49:45;;;;;;;7.65;3.52;;;;;;;19.72;66.88;99897.81;1612308;88;21663;-86
2021/06/11 06:52:14;;;;;;;;;;;;;;;19.74;66.26;99893.82;1611478;88;21098;-86
2021/06/11 06:54:42;;;;;;;1.70;1.70;;;;;;;19.85;66.32;99902.80;1606913;88;20203;-86
2021/06/11 06:57:10;;;;;;;3.52;2.72;;;;;;;19.82;66.58;99901.98;1594713;87;21095;-86
2021/06/11 06:59:36;;;;;;;3.27;2.08;;;;;;;19.83;65.93;99896.31;1609544;87;21073;-89
2021/06/11 07:02:03;;;;;;;1.95;1.85;;;;;;;19.87;64.56;99895.23;1634152;86;21011;-88
2021/06/11 07:04:30;;;;;;;2.65;2.58;;;;;;;19.80;65.06;99902.78;1611121;87;21090;-85
2021/06/11 07:06:57;;;;;;;3.27;2.98;;;;;;;19.74;65.46;99904.63;1602366;88;21082;-86
2021/06/11 07:09:25;;;;;;;2.47;2.37;;;;;;;19.71;65.56;99903.76;1634791;86;22104;-90
2021/06/11 07:11:52;;;;;;;3.45;2.20;;;;;;;19.66;65.02;99902.36;1645420;83;21532;-87
2021/06/11 07:14:20;;;;;;;3.52;2.87;;;;;;;19.68;65.19;99894.00;1637196;86;21108;-88
2021/06/11 07:16:48;;;;;;;2.10;1.98;;;;;;;19.75;65.13;99897.33;1640465;86;21066;-88
2021/06/11 07:19:15;;;;;;;2.20;1.80;;;;;;;19.81;64.26;99892.22;1631748;86;21070;-88
2021/06/11 07:21:41;;;;;;;2.95;1.47;;;;;;;19.92;64.11;99897.98;1637296;86;21600;-88
2021/06/11 07:24:08;;;;;;;4.28;1.60;;;;;;;20.03;63.76;99899.67;1637601;85;21551;-87
2021/06/11 07:26:36;;;;;;;3.67;3.20;;;;;;;20.13;63.03;99896.75;1637161;86;21149;-87
2021/06/11 07:29:04;;;;;;;3.35;1.22;;;;;;;20.21;62.90;99893.53;1636366;86;21165;-88
2021/06/11 07:31:32;;;;;;;1.45;0.95;;;;;;;20.28;62.14;99896.82;1637807;86;21690;-90
2021/06/11 07:33:58;;;;;;;3.42;1.47;;;;;;;20.29;62.03;99902.52;1625810;84;21086;-88
2021/06/11 07:36:25;;;;;;;2.08;1.40;;;;;;;20.29;62.28;99904.42;1611425;87;21042;-89
2021/06/11 07:38:51;;;;;;;;;;;;;;;20.23;62.70;99907.09;1613657;87;21050;-89
2021/06/11 07:41:17;;;;;;;2.08;1.42;;;;;;;20.21;62.48;99901.65;1612691;87;20127;-89
2021/06/11 07:43:43;;;;;;;3.30;2.20;;;;;;;20.17;63.42;99895.14;1610277;87;21138;-90
2021/06/11 07:46:09;;;;;;;;;;;;;;;20.18;63.00;99901.64;1609728;86;21050;-89
2021/06/11 07:48:36;;;;;;;1.60;1.50;;;;;;;20.20;62.61;99898.14;1604255;88;20189;-88
2021/06/11 07:51:03;;;;;;;4.08;1.90;;;;;;;20.29;62.97;99897.11;1585868;88;21134;-87
2021/06/11 07:53:30;;;;;;;3.70;2.00;;;;;;;20.39;62.65;99900.39;1575067;89;21473;-88
2021/06/11 07:55:56;;;;;;;3.52;2.75;;;;;;;20.46;61.12;99902.33;1580063;89;21585;-88
2021/06/11 07:58:23;;;;;;;3.70;2.27;;;;;;;20.49;61.87;99892.85;1601393;89;21616;-89
2021/06/11 08:00:49;;;;;;;2.92;1.75;;;;;;;20.54;62.20;99896.39;1597135;89;21004;-90
2021/06/11 08:03:17;;;;;;;4.62;1.92;;;;;;;20.68;61.08;99898.63;1587636;88;21621;-89
2021/06/11 08:05:43;;;;;;;1.47;1.30;;;;;;;20.83;59.35;99905.44;1577635;86;21039;-89
2021/06/11 08:08:10;;;;;;;1.52;1.42;;;;;;;20.98;57.84;99897.89;1583987;87;21568;-89
2021/06/11 08:10:38;;;;;;;3.30;1.40;;;;;;;21.04;57.52;99903.62;1582052;89;21122;-90
2021/06/11 08:13:05;;;;;;;1.32;1.17;;;;;;;21.11;57.82;99904.14;1578944;89;21029;-88
2021/06/11 08:15:35;;;;;;;1.20;1.20;;;;;;;21.15;57.00;99900.36;1621590;87;21537;-89
2021/06/11 08:18:03;;;;;;;2.05;0.85;;;;;;;21.09;56.78;99901.45;1613418;86;21003;-90
2021/06/11 08:20:29;;;;;;;4.08;1.62;;;;;;;21.06;57.60;99902.80;1610784;87;21054;-91
2021/06/11 08:22:56;;;;;;;1.98;1.05;;;;;;;21.16;56.86;99903.36;1602864;87;21050;-90
2021/06/11 08:25:23;;;;;;;;;;;;;;;21.25;57.46;99909.04;1624606;87;21059;-90
2021/06/11 08:27:50;;;;;;;1.05;0.93;;;;;;;21.28;56.88;99904.44;1621998;86;20147;-90
2021/06/11 08:30:17;;;;;;;2.27;0.93;;;;;;;21.22;57.13;99913.11;1608379;87;21042;-89
2021/06/11 08:32:46;;;;;;;3.90;1.12;;;;;;;21.19;56.97;99909.58;1616574;87;20995;-89
2021/06/11 08:35:13;;;;;;;1.27;0.90;;;;;;;21.19;57.02;99912.28;1611091;87;21078;-89
2021/06/11 08:37:39;;;;;;;1.55;1.52;;;;;;;21.22;56.93;99912.30;1623447;87;21509;-90
2021/06/11 08:40:06;;;;;;;;;;;;;;;21.25;56.65;99909.04;1610057;87;21402;-91
2021/06/11 08:42:36;;;;;;;2.55;1.85;;;;;;;21.26;56.86;99908.77;1611250;87;20147;-90
2021/06/11 08:45:08;;;;;;;1.37;1.37;;;;;;;21.22;57.05;99910.95;1616650;87;21587;-89
2021/06/11 08:47:43;;;;;;;2.15;1.82;;;;;;;21.23;57.18;99916.11;1615695;87;21054;-90
2021/06/11 08:50:10;;;;;;;1.40;1.30;;;;;;;21.27;57.12;99911.77;1604460;87;21019;-90
2021/06/11 08:52:36;;;;;;;4.87;1.95;;;;;;;21.27;57.41;99906.90;1615322;87;21208;-90
2021/06/11 08:55:04;;;;;;;1.62;1.52;;;;;;;21.23;57.47;99916.63;1616588;87;21636;-81
2021/06/11 08:57:32;;;;;;;1.32;1.25;;;;;;;21.16;57.33;99902.80;1617713;87;21223;-90
2021/06/11 08:59:58;;;;;;;1.50;1.40;;;;;;;21.16;57.75;99907.42;1631803;86;21071;-88
2021/06/11 09:02:24;;;;;;;;;;;;;;;21.12;57.25;99903.08;1633700;84;21036;-89
2021/06/11 09:04:55;;;;;;;2.55;1.55;;;;;;;21.12;57.67;99900.37;1607800;84;20125;-89
2021/06/11 09:07:32;;;;;;;2.10;2.00;;;;;;;21.08;59.01;99895.22;1603661;88;21103;-89
2021/06/11 09:10:08;;;;;;;1.67;1.67;;;;;;;21.18;59.82;99894.41;1640472;86;21006;-90
2021/06/11 09:12:41;;;;;;;1.82;1.82;;;;;;;21.27;59.78;99900.13;1602785;87;21090;-88
2021/06/11 09:15:14;;;;;;;2.05;1.92;;;;;;;21.39;59.86;99892.52;1606343;88;21080;-89
2021/06/11 09:17:52;;;;;;;1.40;1.40;;;;;;;21.53;59.62;99889.58;1582945;89;21103;-89
2021/06/11 09:20:22;;;;;;;3.25;2.20;;;;;;;21.63;59.19;99887.95;1598722;88;21065;-90
2021/06/11 09:22:59;;;;;;;7.17;2.02;;;;;;;21.61;58.56;99895.00;1608007;87;21630;-89
2021/06/11 09:25:38;;;;;;;2.52;1.80;;;;;;;21.62;58.19;99890.38;1604002;88;21093;-89
2021/06/11 09:28:11;;;;;;;1.77;1.65;;;;;;;21.62;57.74;99880.34;1581056;88;21041;-89
2021/06/11 09:30:42;;;;;;;2.67;1.90;;;;;;;21.60;57.56;99880.34;1593594;88;21587;-89
2021/06/11 09:33:15;;;;;;;2.47;1.98;;;;;;;21.57;57.37;99880.36;1599068;88;21087;-90
2021/06/11 09:35:55;;;;;;;1.62;1.55;;;;;;;21.58;57.78;99881.42;1584375;90;21046;-89
2021/06/11 09:38:26;;;;;;;1.60;1.52;;;;;;;21.54;57.13;99876.83;1575559;90;21104;-88
2021/06/11 09:41:04;;;;;;;1.85;1.75;;;;;;;21.49;57.81;99881.73;1581435;89;21030;-86
2021/06/11 09:43:33;;;;;;;1.57;1.47;;;;;;;21.46;58.17;99878.19;1553000;91;21185;-86
2021/06/11 09:46:04;;;;;;;2.40;1.82;;;;;;;21.46;57.04;99870.61;1568800;90;21081;-87
2021/06/11 09:48:49;;;;;;;1.77;1.65;;;;;;;21.49;55.51;99873.59;1608676;88;21093;-86
2021/06/11 09:51:26;;;;;;;1.90;1.80;;;;;;;21.57;54.97;99870.32;1602032;88;20998;-88
2021/06/11 09:53:54;;;;;;;3.45;2.05;;;;;;;21.66;55.65;99858.91;1592394;88;21057;-87
2021/06/11 09:56:25;;;;;;;1.00;1.00;;;;;;;21.78;54.41;99864.31;1621795;85;21001;-87
2021/06/11 09:58:54;;;;;;;1.32;1.30;;;;;;;21.93;54.36;99864.83;1624371;85;21592;-87
2021/06/11 10:01:21;;;;;;;1.60;1.50;;;;;;;22.02;54.51;99865.61;1615275;87;21196;-87
2021/06/11 10:03:51;;;;;;;1.25;1.15;;;;;;;22.04;54.42;99869.69;1597667;88;21033;-87
2021/06/11 10:06:19;;;;;;;3.75;1.72;;;;;;;22.00;54.59;99866.44;1564922;90;21118;-88
2021/06/11 10:08:48;;;;;;;2.05;1.50;;;;;;;21.96;54.99;99869.72;1571871;90;21049;-87
2021/06/11 10:11:25;;;;;;;3.58;1.70;;;;;;;21.99;55.66;99866.98;1569829;90;21049;-88
2021/06/11 10:13:56;;;;;;;4.95;1.65;;;;;;;22.05;55.78;99865.88;1604931;88;21010;-87
2021/06/11 10:16:23;;;;;;;5.50;1.60;;;;;;;22.06;55.98;99867.52;1604076;88;21585;-87
2021/06/11 10:18:50;;;;;;;2.02;1.92;;;;;;;21.99;55.45;99865.63;1609235;88;21081;-86
2021/06/11 10:21:16;;;;;;;2.10;1.85;;;;;;;21.92;55.78;99872.69;1605423;88;21173;-87
2021/06/11 10:23:43;;;;;;;1.60;1.50;;;;;;;21.92;56.18;99871.33;1609744;88;21071;-86
2021/06/11 10:26:12;;;;;;;1.72;1.72;;;;;;;21.97;55.03;99869.16;1602160;88;21098;-86
2021/06/11 10:28:48;;;;;;;5.17;1.60;;;;;;;22.01;54.90;99864.00;1601768;88;21070;-87
2021/06/11 10:31:19;;;;;;;2.40;2.30;;;;;;;22.03;54.67;99859.11;1606333;88;21030;-86
2021/06/11 10:33:52;;;;;;;1.72;1.62;;;;;;;22.00;54.88;99867.27;1598791;88;21058;-88
2021/06/11 10:36:40;;;;;;;4.25;1.82;;;;;;;21.91;56.47;99871.63;1570961;89;21070;-86
2021/06/11 10:39:15;;;;;;;1.80;1.70;;;;;;;21.77;57.33;99879.50;1588456;89;21065;-88
2021/06/11 10:42:03;;;;;;;2.62;2.42;;;;;;;21.52;58.93;99884.42;1583610;89;21137;-87
2021/06/11 10:44:50;;;;;;;2.77;2.58;;;;;;;21.23;59.69;99879.52;1574973;89;21064;-86
2021/06/11 10:47:25;;;;;;;2.40;2.30;;;;;;;21.01;60.98;99883.82;1580572;89;21045;-88
2021/06/11 10:50:04;;;;;;;2.50;2.30;;;;;;;21.00;61.97;99883.02;1582382;89;21689;-87
2021/06/11 10:52:43;;;;;;;2.70;2.45;;;;;;;21.16;60.98;99872.19;1568703;89;21096;-88
2021/06/11 10:55:21;;;;;;;2.17;1.98;;;;;;;21.37;61.72;99886.02;1583706;89;21089;-87
2021/06/11 10:57:57;;;;;;;1.95;1.90;;;;;;;21.36;61.58;99876.78;1599536;89;21593;-86
2021/06/11 11:00:33;;;;;;;2.25;2.15;;;;;;;21.12;62.57;99875.17;1587106;89;21234;-88
2021/06/11 11:03:03;;;;;;;2.22;2.12;;;;;;;20.72;64.22;99865.35;1584678;89;21015;-88
2021/06/11 11:05:39;;;;;;;2.83;2.62;;;;;;;20.38;65.43;99867.11;1568894;89;21034;-87
2021/06/11 11:08:09;;;;;;;1.77;1.65;;;;;;;20.15;65.27;99865.63;1581609;89;21435;-86
2021/06/11 11:10:43;;;;;;;2.33;2.10;;;;;;;19.92;66.41;99874.18;1567231;89;21417;-87
2021/06/11 11:13:27;;;;;;;3.02;2.77;;;;;;;19.76;66.29;99871.91;1574749;89;21639;-86
2021/06/11 11:15:56;;;;;;;2.80;2.47;;;;;;;19.68;66.81;99871.02;1576052;89;21558;-87
2021/06/11 11:18:40;;;;;;;2.15;2.05;;;;;;;19.67;66.80;99868.05;1576931;89;21010;-88
2021/06/11 11:21:28;;;;;;;3.10;1.90;;;;;;;19.76;66.60;99866.50;1579758;89;21048;-86
2021/06/11 11:23:58;;;;;;;3.10;2.10;;;;;;;19.88;66.24;99860.91;1601495;88;21021;-87
2021/06/11 11:26:49;;;;;;;2.37;2.27;;;;;;;19.95;65.71;99859.59;1605742;88;21109;-86
2021/06/11 11:29:19;;;;;;;1.90;1.80;;;;;;;20.07;66.36;99859.38;1600035;88;21104;-86
2021/06/11 11:31:48;;;;;;;2.33;2.22;;;;;;;20.28;66.39;99856.77;1596110;88;21086;-87
2021/06/11 11:34:16;;;;;;;2.50;2.35;;;;;;;20.46;65.56;99846.03;1597717;88;21034;-88
2021/06/11 11:36:42;;;;;;;2.20;2.10;;;;;;;20.67;65.31;99845.02;1588777;89;21114;-87
2021/06/11 11:39:13;;;;;;;1.60;1.60;;;;;;;20.79;63.24;99846.95;1590916;89;21066;-86
2021/06/11 11:41:40;;;;;;;2.45;2.17;;;;;;;20.89;61.96;99834.48;1591881;89;21003;-88
2021/06/11 11:44:06;;;;;;;1.32;1.22;;;;;;;21.01;59.02;99832.34;1579545;89;21532;-87
2021/06/11 11:46:32;;;;;;;1.02;0.98;;;;;;;21.15;58.53;99828.55;1579767;89;21098;-86
2021/06/11 11:48:58;;;;;;;;;;;;;;;21.32;58.41;99827.75;1583396;89;21038;-87
2021/06/11 11:51:24;;;;;;;0.90;0.90;;;;;;;21.48;57.61;99825.86;1560183;89;20126;-86